createdAt,value
2022-11-19T00:01:25.906Z,10.80
2022-11-19T00:03:53.467Z,9.40
2022-11-19T00:06:23.190Z,8.50
2022-11-19T00:08:49.961Z,9.40
2022-11-19T00:11:37.729Z,11.30
2022-11-19T00:14:05.082Z,10.50
2022-11-19T00:16:32.002Z,10.40
2022-11-19T00:18:59.255Z,9.10
2022-11-19T00:21:26.203Z,11.10
2022-11-19T00:23:54.152Z,9.10
2022-11-19T00:26:21.495Z,9.50
2022-11-19T00:28:48.400Z,10.70
2022-11-19T00:31:16.347Z,8.80
2022-11-19T00:33:45.007Z,8.80
2022-11-19T00:36:14.928Z,9.50
2022-11-19T00:38:42.564Z,8.30
2022-11-19T00:41:10.292Z,8.60
2022-11-19T00:43:46.415Z,9.00
2022-11-19T00:46:15.406Z,9.10
2022-11-19T00:48:42.312Z,10.10
2022-11-19T00:51:09.971Z,9.20
2022-11-19T00:53:37.308Z,9.80
2022-11-19T00:56:07.565Z,8.10
2022-11-19T00:58:34.967Z,7.60
2022-11-19T01:01:02.115Z,7.80
2022-11-19T01:03:29.604Z,7.30
2022-11-19T01:05:57.432Z,8.00
2022-11-19T01:08:24.270Z,8.00
2022-11-19T01:10:51.399Z,6.90
2022-11-19T01:13:36.807Z,8.40
2022-11-19T01:16:08.253Z,8.60
2022-11-19T01:18:36.493Z,8.80
2022-11-19T01:21:05.243Z,8.20
2022-11-19T01:23:33.462Z,9.10
2022-11-19T01:26:00.821Z,8.10
2022-11-19T01:28:28.565Z,9.00
2022-11-19T01:30:55.538Z,7.50
2022-11-19T01:33:22.556Z,7.00
2022-11-19T01:36:01.027Z,7.20
2022-11-19T01:38:29.076Z,6.10
2022-11-19T01:40:57.006Z,5.20
2022-11-19T01:43:47.132Z,4.00
2022-11-19T01:46:28.323Z,3.20
2022-11-19T01:49:00.841Z,3.00
2022-11-19T01:51:32.647Z,2.50
2022-11-19T01:54:04.615Z,2.60
2022-11-19T01:56:31.555Z,3.00
2022-11-19T01:59:03.469Z,3.50
2022-11-19T02:01:31.959Z,3.20
2022-11-19T02:04:04.441Z,2.60
2022-11-19T02:06:33.818Z,2.90
2022-11-19T02:09:00.737Z,2.80
2022-11-19T02:11:37.394Z,3.10
2022-11-19T02:14:22.463Z,4.30
2022-11-19T02:17:11.121Z,3.50
2022-11-19T02:19:40.898Z,3.40
2022-11-19T02:22:23.491Z,3.30
2022-11-19T02:24:53.278Z,4.10
2022-11-19T02:27:35.479Z,3.30
2022-11-19T02:30:05.446Z,3.20
2022-11-19T02:33:08.226Z,3.30
2022-11-19T02:35:43.033Z,2.90
2022-11-19T02:38:23.757Z,2.80
2022-11-19T02:41:23.917Z,2.20
2022-11-19T02:44:20.910Z,2.40
2022-11-19T02:46:51.669Z,2.50
2022-11-19T02:49:23.058Z,2.00
2022-11-19T02:51:50.085Z,3.00
2022-11-19T02:54:17.732Z,2.00
2022-11-19T02:56:51.416Z,2.00
2022-11-19T02:59:44.563Z,2.10
2022-11-19T03:02:33.551Z,1.80
2022-11-19T03:05:01.899Z,2.20
2022-11-19T03:07:29.054Z,1.90
2022-11-19T03:09:59.697Z,1.80
2022-11-19T03:12:49.502Z,2.30
2022-11-19T03:15:53.463Z,2.20
2022-11-19T03:18:38.344Z,2.30
2022-11-19T03:21:05.312Z,2.00
2022-11-19T03:23:39.697Z,2.30
2022-11-19T03:26:35.021Z,2.40
2022-11-19T03:29:05.410Z,1.80
2022-11-19T03:31:34.207Z,2.20
2022-11-19T03:34:07.164Z,2.00
2022-11-19T03:36:40.340Z,2.00
2022-11-19T03:39:14.994Z,2.00
2022-11-19T03:41:46.130Z,2.80
2022-11-19T03:44:30.051Z,2.70
2022-11-19T03:47:09.369Z,2.60
2022-11-19T03:49:41.091Z,2.90
2022-11-19T03:52:14.746Z,2.60
2022-11-19T03:54:42.235Z,2.90
2022-11-19T03:57:13.253Z,3.50
2022-11-19T03:59:40.273Z,4.40
2022-11-19T04:02:09.473Z,3.90
2022-11-19T04:04:37.795Z,4.30
2022-11-19T04:07:16.796Z,4.80
2022-11-19T04:09:44.062Z,4.00
2022-11-19T04:12:22.071Z,4.10
2022-11-19T04:14:49.775Z,3.80
2022-11-19T04:17:18.031Z,4.90
2022-11-19T04:19:45.066Z,5.30
2022-11-19T04:22:12.035Z,5.10
2022-11-19T04:24:38.815Z,6.50
2022-11-19T04:27:05.585Z,6.30
2022-11-19T04:29:32.458Z,6.30
2022-11-19T04:31:59.250Z,5.90
2022-11-19T04:34:26.134Z,5.80
2022-11-19T04:36:52.889Z,5.30
2022-11-19T04:39:20.213Z,6.50
2022-11-19T04:41:47.437Z,5.90
2022-11-19T04:44:14.337Z,6.30
2022-11-19T04:46:41.123Z,6.10
2022-11-19T04:49:07.971Z,7.00
2022-11-19T04:51:34.750Z,7.50
2022-11-19T04:54:01.680Z,6.70
2022-11-19T04:56:28.599Z,7.20
2022-11-19T04:58:55.447Z,7.00
2022-11-19T05:01:22.321Z,7.00
2022-11-19T05:03:50.224Z,5.90
2022-11-19T05:06:17.025Z,6.90
2022-11-19T05:08:44.552Z,7.20
2022-11-19T05:11:11.811Z,7.10
2022-11-19T05:13:38.670Z,6.60
2022-11-19T05:16:05.629Z,6.50
2022-11-19T05:18:33.285Z,7.30
2022-11-19T05:21:00.270Z,8.20
2022-11-19T05:23:28.014Z,8.60
2022-11-19T05:25:54.916Z,6.20
2022-11-19T05:28:32.707Z,7.90
2022-11-19T05:31:05.415Z,8.50
2022-11-19T05:33:34.231Z,8.90
2022-11-19T05:36:02.515Z,9.20
2022-11-19T05:38:29.331Z,8.10
2022-11-19T05:40:56.156Z,8.50
2022-11-19T05:43:23.071Z,8.70
2022-11-19T05:45:49.885Z,9.30
2022-11-19T05:48:16.702Z,8.40
2022-11-19T05:50:43.481Z,8.70
2022-11-19T05:53:10.294Z,8.30
2022-11-19T05:55:37.020Z,9.80
2022-11-19T05:58:03.848Z,9.10
2022-11-19T06:00:30.756Z,9.50
2022-11-19T06:02:57.730Z,9.50
2022-11-19T06:05:24.493Z,8.80
2022-11-19T06:07:51.282Z,7.60
2022-11-19T06:10:18.220Z,8.60
2022-11-19T06:12:46.076Z,9.00
2022-11-19T06:15:14.250Z,10.30
2022-11-19T06:17:41.595Z,10.30
2022-11-19T06:20:10.505Z,8.40
2022-11-19T06:22:38.213Z,9.90
2022-11-19T06:25:07.241Z,9.00
2022-11-19T06:27:34.538Z,9.70
2022-11-19T06:30:01.714Z,9.60
2022-11-19T06:32:32.276Z,8.80
2022-11-19T06:35:04.649Z,9.40
2022-11-19T06:37:31.881Z,9.70
2022-11-19T06:39:58.758Z,8.30
2022-11-19T06:42:38.372Z,10.10
2022-11-19T06:45:14.249Z,9.60
2022-11-19T06:47:42.224Z,9.30
2022-11-19T06:50:10.336Z,9.90
2022-11-19T06:52:37.741Z,10.20
2022-11-19T06:55:05.024Z,9.20
2022-11-19T06:57:31.867Z,10.10
2022-11-19T06:59:58.948Z,9.30
2022-11-19T07:02:25.820Z,9.90
2022-11-19T07:04:52.645Z,11.50
2022-11-19T07:07:20.805Z,10.00
2022-11-19T07:09:47.750Z,10.10
2022-11-19T07:12:14.561Z,9.20
2022-11-19T07:14:41.399Z,10.00
2022-11-19T07:17:08.309Z,10.80
2022-11-19T07:19:35.085Z,9.90
2022-11-19T07:22:01.917Z,10.40
2022-11-19T07:24:28.677Z,9.70
2022-11-19T07:26:55.904Z,8.70
2022-11-19T07:29:22.970Z,9.90
2022-11-19T07:31:52.681Z,8.60
2022-11-19T07:34:20.127Z,10.10
2022-11-19T07:36:47.330Z,11.10
2022-11-19T07:39:14.167Z,10.10
2022-11-19T07:41:59.934Z,10.40
2022-11-19T07:44:26.736Z,11.60
2022-11-19T07:46:53.533Z,9.00
2022-11-19T07:49:20.798Z,9.80
2022-11-19T07:51:48.373Z,11.00
2022-11-19T07:54:15.956Z,11.20
2022-11-19T07:56:42.966Z,12.40
2022-11-19T07:59:10.332Z,11.00
2022-11-19T08:01:38.186Z,12.20
2022-11-19T08:04:05.362Z,11.40
2022-11-19T08:06:34.123Z,11.40
2022-11-19T08:09:02.256Z,11.60
2022-11-19T08:11:29.167Z,11.30
2022-11-19T08:13:59.322Z,10.70
2022-11-19T08:16:44.674Z,11.10
2022-11-19T08:19:13.980Z,11.40
2022-11-19T08:21:43.889Z,11.10
2022-11-19T08:24:11.795Z,12.00
2022-11-19T08:26:40.406Z,11.30
2022-11-19T08:29:13.077Z,11.30
2022-11-19T08:31:45.216Z,11.60
2022-11-19T08:34:12.455Z,10.20
2022-11-19T08:36:39.635Z,9.80
2022-11-19T08:39:06.553Z,10.40
2022-11-19T08:41:52.427Z,10.20
2022-11-19T08:44:20.019Z,10.00
2022-11-19T08:46:47.181Z,10.40
2022-11-19T08:49:14.208Z,15.10
2022-11-19T08:51:41.095Z,13.50
2022-11-19T08:54:08.295Z,11.70
2022-11-19T08:56:35.248Z,12.30
2022-11-19T08:59:03.115Z,10.90
2022-11-19T09:01:30.429Z,11.20
2022-11-19T09:03:57.707Z,10.80
2022-11-19T09:06:24.557Z,12.30
2022-11-19T09:08:51.627Z,13.90
2022-11-19T09:11:20.394Z,11.40
2022-11-19T09:13:47.353Z,12.20
2022-11-19T09:16:14.874Z,14.40
2022-11-19T09:18:41.692Z,13.10
2022-11-19T09:21:11.082Z,12.70
2022-11-19T09:23:39.155Z,14.50
2022-11-19T09:26:12.114Z,14.70
2022-11-19T09:28:39.452Z,13.40
2022-11-19T09:31:11.677Z,13.60
2022-11-19T09:33:41.683Z,12.30
2022-11-19T09:36:10.783Z,12.10
2022-11-19T09:38:38.812Z,13.70
2022-11-19T09:41:40.832Z,11.70
2022-11-19T09:44:55.768Z,13.10
2022-11-19T09:47:49.370Z,13.10
2022-11-19T09:50:18.501Z,13.70
2022-11-19T09:52:52.434Z,12.10
2022-11-19T09:55:32.595Z,10.90
2022-11-19T09:58:00.456Z,13.70
2022-11-19T10:00:30.464Z,19.50
2022-11-19T10:03:01.134Z,16.50
2022-11-19T10:06:08.619Z,62.00
2022-11-19T10:09:02.941Z,38.60
2022-11-19T10:12:03.856Z,48.00
2022-11-19T10:14:36.831Z,14.10
2022-11-19T10:17:12.386Z,14.30
2022-11-19T10:20:00.893Z,13.40
2022-11-19T10:22:38.361Z,10.80
2022-11-19T10:25:28.920Z,16.60
2022-11-19T10:28:11.048Z,13.40
2022-11-19T10:30:40.456Z,12.20
2022-11-19T10:33:29.046Z,23.00
2022-11-19T10:36:02.407Z,16.60
2022-11-19T10:38:55.543Z,19.80
2022-11-19T10:41:55.316Z,17.70
2022-11-19T10:44:45.776Z,36.00
2022-11-19T10:47:39.532Z,25.30
2022-11-19T10:50:11.160Z,15.50
2022-11-19T10:52:44.182Z,17.50
2022-11-19T10:55:19.749Z,14.10
2022-11-19T10:57:50.224Z,12.50
2022-11-19T11:00:17.426Z,13.10
2022-11-19T11:02:57.871Z,14.70
2022-11-19T11:05:24.676Z,11.40
2022-11-19T11:07:52.970Z,12.50
2022-11-19T11:10:25.959Z,11.60
2022-11-19T11:13:14.089Z,10.30
2022-11-19T11:15:46.886Z,12.40
2022-11-19T11:18:14.942Z,11.90
2022-11-19T11:20:47.949Z,13.30
2022-11-19T11:23:18.575Z,19.40
2022-11-19T11:25:58.966Z,18.70
2022-11-19T11:28:25.814Z,13.00
2022-11-19T11:31:01.651Z,12.60
2022-11-19T11:33:54.626Z,11.50
2022-11-19T11:36:25.659Z,12.40
2022-11-19T11:38:55.242Z,13.10
2022-11-19T11:44:23.374Z,11.20
2022-11-19T11:46:53.692Z,11.50
2022-11-19T11:49:29.723Z,13.10
2022-11-19T11:51:59.351Z,11.50
2022-11-19T11:54:26.221Z,16.90
2022-11-19T11:56:52.988Z,11.90
2022-11-19T11:59:29.350Z,13.30
2022-11-19T12:02:07.858Z,13.60
2022-11-19T12:04:35.286Z,13.10
2022-11-19T12:07:21.183Z,12.90
2022-11-19T12:10:16.931Z,11.90
2022-11-19T12:13:02.121Z,12.40
2022-11-19T12:15:50.678Z,12.30
2022-11-19T12:18:45.220Z,13.10
2022-11-19T12:21:18.409Z,13.20
2022-11-19T12:24:06.957Z,12.40
2022-11-19T12:26:55.448Z,11.70
2022-11-19T12:29:31.251Z,12.00
2022-11-19T12:32:03.687Z,11.40
2022-11-19T12:34:39.045Z,12.20
2022-11-19T12:37:24.414Z,12.60
2022-11-19T12:39:59.968Z,13.40
2022-11-19T12:42:35.265Z,13.60
2022-11-19T12:45:35.869Z,12.80
2022-11-19T12:48:05.642Z,12.90
2022-11-19T12:50:38.257Z,15.00
2022-11-19T12:53:05.119Z,15.30
2022-11-19T12:55:50.680Z,15.10
2022-11-19T12:58:45.342Z,16.00
2022-11-19T13:01:21.359Z,16.30
2022-11-19T13:03:48.340Z,21.00
2022-11-19T13:06:24.697Z,19.90
2022-11-19T13:08:58.297Z,22.80
2022-11-19T13:11:35.983Z,20.10
2022-11-19T13:14:11.176Z,18.10
2022-11-19T13:16:40.525Z,19.40
2022-11-19T13:19:19.859Z,17.00
2022-11-19T13:21:54.106Z,17.90
2022-11-19T13:24:46.338Z,19.90
2022-11-19T13:27:23.207Z,17.50
2022-11-19T13:29:58.521Z,17.10
2022-11-19T13:33:00.652Z,16.80
2022-11-19T13:35:45.361Z,17.50
2022-11-19T13:38:12.140Z,16.30
2022-11-19T13:40:47.015Z,15.90
2022-11-19T13:43:36.922Z,15.60
2022-11-19T13:46:14.776Z,15.20
2022-11-19T13:49:02.199Z,13.90
2022-11-19T13:51:34.972Z,14.10
2022-11-19T13:54:04.265Z,15.20
2022-11-19T13:56:57.759Z,14.80
2022-11-19T13:59:43.084Z,13.20
2022-11-19T14:02:19.683Z,15.40
2022-11-19T14:05:25.961Z,14.10
2022-11-19T14:08:24.275Z,14.00
2022-11-19T14:11:09.543Z,14.70
2022-11-19T14:14:36.063Z,18.70
2022-11-19T14:17:49.299Z,17.70
2022-11-19T14:20:59.348Z,17.00
2022-11-19T14:24:05.448Z,20.40
2022-11-19T14:26:41.698Z,19.90
2022-11-19T14:29:17.966Z,16.40
2022-11-19T14:32:11.449Z,16.90
2022-11-19T14:34:39.984Z,20.40
2022-11-19T14:37:19.937Z,17.40
2022-11-19T14:39:55.922Z,19.20
2022-11-19T14:42:23.180Z,18.90
2022-11-19T14:45:02.363Z,19.00
2022-11-19T14:47:36.154Z,18.90
2022-11-19T14:50:27.363Z,18.00
2022-11-19T14:52:56.783Z,15.80
2022-11-19T14:55:27.233Z,17.30
2022-11-19T14:58:01.898Z,18.20
2022-11-19T15:00:37.012Z,19.70
2022-11-19T15:03:11.424Z,16.80
2022-11-19T15:05:45.565Z,23.20
2022-11-19T15:08:18.583Z,22.10
2022-11-19T15:11:05.303Z,24.20
2022-11-19T15:13:33.834Z,24.40
2022-11-19T15:16:18.897Z,24.60
2022-11-19T15:18:46.092Z,22.30
2022-11-19T15:21:42.655Z,21.10
2022-11-19T15:24:16.879Z,25.40
2022-11-19T15:27:18.612Z,26.10
2022-11-19T15:30:18.361Z,28.80
2022-11-19T15:32:59.990Z,28.70
2022-11-19T15:35:35.035Z,27.80
2022-11-19T15:38:20.373Z,26.60
2022-11-19T15:40:50.952Z,25.60
2022-11-19T15:43:45.337Z,28.00
2022-11-19T15:46:18.283Z,28.70
2022-11-19T15:48:56.284Z,30.80
2022-11-19T15:51:23.866Z,32.90
2022-11-19T15:53:59.298Z,32.40
2022-11-19T15:56:32.580Z,29.70
2022-11-19T15:59:02.795Z,29.90
2022-11-19T16:01:33.892Z,27.60
2022-11-19T16:04:07.197Z,24.10
2022-11-19T16:06:36.592Z,25.20
2022-11-19T16:09:08.158Z,28.70
2022-11-19T16:11:56.278Z,25.70
2022-11-19T16:14:44.697Z,26.90
2022-11-19T16:17:44.180Z,25.40
2022-11-19T16:20:18.864Z,24.20
2022-11-19T16:22:48.904Z,25.10
2022-11-19T16:25:35.292Z,24.00
2022-11-19T16:28:06.503Z,30.80
2022-11-19T16:30:49.017Z,27.00
2022-11-19T16:33:30.451Z,26.00
2022-11-19T16:36:13.171Z,26.70
2022-11-19T16:38:42.872Z,24.60
2022-11-19T16:41:31.130Z,23.80
2022-11-19T16:43:58.838Z,22.10
2022-11-19T16:46:29.253Z,22.80
2022-11-19T16:48:58.773Z,23.00
2022-11-19T16:51:39.451Z,22.10
2022-11-19T16:54:10.676Z,17.60
2022-11-19T16:56:42.469Z,18.50
2022-11-19T16:59:20.943Z,15.90
2022-11-19T17:01:57.947Z,19.20
2022-11-19T17:04:30.069Z,19.90
2022-11-19T17:06:58.653Z,23.90
2022-11-19T17:09:43.970Z,24.50
2022-11-19T17:12:33.628Z,30.50
2022-11-19T17:15:21.865Z,30.00
2022-11-19T17:17:51.323Z,26.00
2022-11-19T17:20:27.458Z,25.60
2022-11-19T17:22:56.279Z,34.70
2022-11-19T17:25:23.913Z,34.00
2022-11-19T17:27:55.849Z,31.70
2022-11-19T17:30:26.203Z,30.10
2022-11-19T17:33:00.212Z,30.20
2022-11-19T17:35:37.218Z,23.40
2022-11-19T17:38:16.989Z,23.40
2022-11-19T17:40:58.480Z,23.20
2022-11-19T17:43:58.332Z,22.10
2022-11-19T17:46:28.719Z,23.10
2022-11-19T17:48:56.688Z,22.00
2022-11-19T17:51:25.510Z,22.30
2022-11-19T17:53:52.816Z,20.60
2022-11-19T17:56:26.604Z,18.40
2022-11-19T17:58:54.267Z,19.70
2022-11-19T18:01:21.845Z,22.80
2022-11-19T18:03:49.011Z,19.00
2022-11-19T18:06:17.654Z,16.60
2022-11-19T18:08:45.392Z,17.10
2022-11-19T18:11:16.122Z,19.30
2022-11-19T18:13:44.388Z,20.60
2022-11-19T18:16:22.473Z,19.40
2022-11-19T18:18:50.241Z,20.00
2022-11-19T18:21:20.008Z,16.90
2022-11-19T18:23:49.745Z,18.40
2022-11-19T18:26:19.085Z,19.00
2022-11-19T18:28:48.785Z,17.90
2022-11-19T18:31:18.259Z,21.50
2022-11-19T18:33:47.498Z,26.20
2022-11-19T18:36:15.188Z,27.90
2022-11-19T18:38:42.682Z,26.50
2022-11-19T18:41:10.833Z,25.50
2022-11-19T18:43:56.099Z,27.60
2022-11-19T18:46:23.230Z,30.90
2022-11-19T18:48:50.426Z,23.80
2022-11-19T18:51:17.277Z,20.40
2022-11-19T18:53:44.045Z,20.90
2022-11-19T18:56:15.215Z,19.10
2022-11-19T18:58:42.441Z,19.60
2022-11-19T19:01:09.619Z,19.80
2022-11-19T19:03:36.978Z,19.60
2022-11-19T19:06:06.719Z,19.90
2022-11-19T19:08:34.335Z,21.80
2022-11-19T19:11:24.135Z,21.30
2022-11-19T19:13:51.540Z,26.70
2022-11-19T19:16:18.380Z,26.70
2022-11-19T19:18:45.379Z,20.70
2022-11-19T19:21:17.076Z,24.00
2022-11-19T19:23:44.319Z,19.50
2022-11-19T19:26:12.786Z,22.20
2022-11-19T19:28:39.741Z,19.50
2022-11-19T19:31:06.873Z,19.10
2022-11-19T19:33:34.457Z,21.20
2022-11-19T19:36:05.564Z,24.00
2022-11-19T19:38:32.542Z,24.00
2022-11-19T19:41:07.229Z,23.80
2022-11-19T19:43:34.249Z,28.50
2022-11-19T19:46:04.687Z,35.50
2022-11-19T19:48:31.836Z,36.70
2022-11-19T19:50:58.869Z,39.90
2022-11-19T19:53:25.762Z,38.10
2022-11-19T19:56:02.035Z,35.10
2022-11-19T19:58:28.888Z,43.20
2022-11-19T20:01:06.078Z,44.20
2022-11-19T20:03:34.547Z,38.80
2022-11-19T20:06:02.948Z,31.20
2022-11-19T20:08:30.488Z,30.30
2022-11-19T20:11:02.744Z,30.10
2022-11-19T20:13:32.592Z,31.30
2022-11-19T20:16:05.010Z,29.10
2022-11-19T20:18:33.325Z,25.40
2022-11-19T20:21:01.161Z,21.90
2022-11-19T20:23:28.162Z,24.10
2022-11-19T20:26:00.104Z,23.40
2022-11-19T20:28:28.396Z,26.10
2022-11-19T20:31:25.452Z,22.20
2022-11-19T20:33:58.387Z,23.50
2022-11-19T20:36:27.513Z,22.70
2022-11-19T20:38:56.803Z,20.40
2022-11-19T20:41:43.480Z,22.40
2022-11-19T20:44:21.354Z,19.50
2022-11-19T20:46:57.310Z,21.60
2022-11-19T20:49:26.808Z,20.60
2022-11-19T20:51:54.335Z,20.50
2022-11-19T20:54:22.614Z,19.10
2022-11-19T20:56:50.725Z,20.20
2022-11-19T20:59:18.752Z,20.40
2022-11-19T21:01:48.750Z,18.70
2022-11-19T21:04:15.757Z,18.30
2022-11-19T21:06:42.484Z,18.30
2022-11-19T21:09:09.372Z,18.90
2022-11-19T21:11:36.366Z,19.20
2022-11-19T21:14:04.283Z,19.50
2022-11-19T21:16:32.341Z,20.00
2022-11-19T21:19:00.291Z,15.90
2022-11-19T21:21:27.748Z,17.80
2022-11-19T21:23:55.248Z,15.80
2022-11-19T21:26:24.287Z,18.90
2022-11-19T21:28:53.553Z,17.80
2022-11-19T21:31:37.244Z,17.30
2022-11-19T21:34:11.851Z,18.00
2022-11-19T21:36:41.379Z,17.40
2022-11-19T21:39:09.282Z,16.30
2022-11-19T21:41:36.633Z,17.90
2022-11-19T21:44:04.782Z,17.60
2022-11-19T21:46:31.863Z,20.70
2022-11-19T21:48:58.721Z,15.20
2022-11-19T21:51:25.645Z,19.50
2022-11-19T21:53:54.929Z,17.90
2022-11-19T21:56:22.401Z,16.70
2022-11-19T21:58:49.254Z,19.90
2022-11-19T22:01:16.290Z,16.80
2022-11-19T22:03:43.143Z,17.90
2022-11-19T22:06:11.120Z,20.60
2022-11-19T22:08:40.240Z,21.90
2022-11-19T22:11:27.790Z,20.20
2022-11-19T22:13:57.059Z,18.50
2022-11-19T22:16:23.932Z,17.30
2022-11-19T22:18:50.691Z,18.90
2022-11-19T22:21:18.669Z,17.00
2022-11-19T22:23:45.977Z,18.50
2022-11-19T22:26:14.919Z,18.70
2022-11-19T22:28:41.721Z,20.30
2022-11-19T22:31:09.037Z,20.30
2022-11-19T22:33:38.522Z,19.00
2022-11-19T22:36:10.068Z,18.10
2022-11-19T22:38:38.572Z,18.50
2022-11-19T22:41:12.188Z,16.70
2022-11-19T22:43:39.944Z,19.80
2022-11-19T22:46:09.240Z,17.70
2022-11-19T22:48:36.252Z,17.20
2022-11-19T22:51:12.942Z,20.50
2022-11-19T22:53:40.531Z,18.40
2022-11-19T22:56:09.882Z,19.10
2022-11-19T22:58:37.802Z,15.00
2022-11-19T23:01:06.388Z,18.10
2022-11-19T23:03:33.230Z,16.90
2022-11-19T23:06:00.045Z,18.10
2022-11-19T23:08:26.833Z,17.70
2022-11-19T23:10:59.309Z,18.50
2022-11-19T23:13:32.289Z,16.80
2022-11-19T23:16:06.821Z,17.60
2022-11-19T23:18:47.432Z,18.40
2022-11-19T23:21:17.854Z,15.80
2022-11-19T23:23:44.682Z,15.50
2022-11-19T23:26:14.041Z,15.00
2022-11-19T23:28:41.347Z,18.00
2022-11-19T23:31:29.726Z,16.00
2022-11-19T23:33:59.286Z,13.80
2022-11-19T23:36:34.987Z,15.20
2022-11-19T23:39:03.119Z,12.60
2022-11-19T23:41:32.104Z,16.60
2022-11-19T23:43:59.041Z,13.60
2022-11-19T23:46:30.881Z,13.30
2022-11-19T23:48:58.731Z,11.40
2022-11-19T23:51:28.396Z,14.20
2022-11-19T23:53:56.164Z,12.80
2022-11-19T23:56:24.260Z,14.40
2022-11-19T23:58:51.659Z,12.80
